Time;durP1;ratioP1;P1;durP2;ratioP2;P2;SDS_P1;SDS_P2;PMS_P1;PMS_P2;Temp;Humidity;BMP_temperature;BMP_pressure;BME280_temperature;BME280_humidity;BME280_pressure;Samples;Min_cycle;Max_cycle;Signal;HPM_P1;HPM_P2
2022/02/05 00:02:08;;;;;;;4.70;2.00;;;;;;;11.96;46.32;101478.28;5056576;28;20360;-63
2022/02/05 00:04:35;;;;;;;4.38;1.33;;;;;;;11.94;46.60;101474.88;5056897;28;20099;-63
2022/02/05 00:07:02;;;;;;;6.30;1.55;;;;;;;11.93;47.10;101480.34;5038853;28;20025;-62
2022/02/05 00:09:43;;;;;;;5.47;1.60;;;;;;;11.91;47.32;101483.16;5038893;28;20039;-63
2022/02/05 00:33:03;;;;;;;2.30;1.50;;;;;;;11.90;46.59;101494.88;5056434;28;20450;-63
2022/02/05 00:41:45;;;;;;;3.45;1.42;;;;;;;11.90;47.25;101527.06;5056123;28;20029;-63
2022/02/05 00:44:10;;;;;;;3.88;1.17;;;;;;;11.91;47.13;101539.53;5055368;28;20045;-63
2022/02/05 00:46:39;;;;;;;7.85;1.65;;;;;;;11.87;47.43;101526.44;5055764;28;20090;-63
2022/02/05 00:49:05;;;;;;;5.53;1.55;;;;;;;11.87;46.65;101532.69;5055493;28;20029;-63
2022/02/05 00:51:36;;;;;;;1.42;1.15;;;;;;;11.86;46.61;101539.03;5037509;28;20372;-63
2022/02/05 00:54:14;;;;;;;6.32;1.40;;;;;;;11.83;46.27;101533.91;5055519;28;20025;-63
2022/02/05 00:59:16;;;;;;;4.70;1.27;;;;;;;11.85;47.30;101541.84;5055499;28;20061;-63
2022/02/05 01:01:42;;;;;;;3.50;1.40;;;;;;;11.85;47.10;101544.53;5055290;28;20024;-63
2022/02/05 01:04:07;;;;;;;4.10;1.55;;;;;;;11.85;46.50;101537.31;5055448;28;20025;-63
2022/02/05 01:06:33;;;;;;;6.53;1.80;;;;;;;11.84;47.06;101543.66;5054918;28;20078;-63
2022/02/05 01:09:01;;;;;;;3.58;1.65;;;;;;;11.83;46.92;101539.28;5055387;28;20029;-63
2022/02/05 01:11:26;;;;;;;6.10;1.58;;;;;;;11.84;47.48;101549.03;5037330;28;20029;-63
2022/02/05 01:13:54;;;;;;;9.10;1.73;;;;;;;11.79;47.43;101535.13;5055164;28;20494;-63
2022/02/05 01:16:29;;;;;;;1.90;1.55;;;;;;;11.80;46.61;101552.94;5055102;28;20116;-64
2022/02/05 01:18:54;;;;;;;8.20;1.80;;;;;;;11.84;46.76;101565.13;5054979;28;20090;-63
2022/02/05 01:23:53;;;;;;;3.45;1.80;;;;;;;11.80;46.36;101562.81;5055166;28;20024;-63
2022/02/05 01:28:49;;;;;;;8.00;1.80;;;;;;;11.82;46.91;101571.59;5055010;28;20040;-62
2022/02/05 01:31:14;;;;;;;5.93;2.08;;;;;;;11.82;46.43;101582.34;5055000;28;20371;-63
2022/02/05 01:33:50;;;;;;;9.48;1.83;;;;;;;11.79;46.93;101594.16;5054682;28;20083;-63
2022/02/05 01:58:12;;;;;;;4.78;1.33;;;;;;;11.71;47.43;101607.31;5038670;28;20029;-63
2022/02/05 02:06:47;;;;;;;5.53;1.45;;;;;;;11.68;47.04;101613.75;5054045;28;20028;-63
2022/02/05 02:11:54;;;;;;;6.35;1.52;;;;;;;11.66;46.25;101620.22;5054191;28;20066;-62
2022/02/05 02:22:09;;;;;;;9.65;1.45;;;;;;;11.61;46.75;101627.75;5036949;28;20506;-63
2022/02/05 02:24:46;;;;;;;4.95;1.58;;;;;;;11.60;46.80;101624.22;5037634;28;20024;-63
2022/02/05 02:32:05;;;;;;;3.75;1.20;;;;;;;11.56;46.52;101616.50;5054065;28;20017;-63
2022/02/05 02:34:36;;;;;;;4.85;1.30;;;;;;;11.54;47.00;101621.13;5053901;28;20060;-63
2022/02/05 02:37:10;;;;;;;4.38;1.20;;;;;;;11.58;45.76;101638.72;5036856;28;20056;-63
2022/02/05 02:39:51;;;;;;;4.32;2.58;;;;;;;11.58;47.06;101641.41;5053747;28;20032;-62
2022/02/05 02:42:17;;;;;;;2.58;1.13;;;;;;;11.57;46.49;101643.22;5053660;28;20025;-63
2022/02/05 02:44:42;;;;;;;5.88;1.20;;;;;;;11.59;46.92;101645.78;5053494;28;20052;-61
2022/02/05 02:47:08;;;;;;;8.18;1.70;;;;;;;11.58;46.56;101646.78;5053525;28;20025;-63
2022/02/05 02:57:33;;;;;;;6.15;1.33;;;;;;;11.48;46.47;101643.91;5053405;28;20044;-60
2022/02/05 03:00:02;;;;;;;5.60;1.13;;;;;;;11.48;46.44;101664.50;5035964;28;20501;-63
2022/02/05 03:02:28;;;;;;;3.33;1.00;;;;;;;11.48;46.41;101680.59;5053907;28;20436;-63
2022/02/05 03:04:54;;;;;;;5.78;1.40;;;;;;;11.46;46.65;101678.06;5035735;28;20020;-63
2022/02/05 03:07:21;;;;;;;7.63;1.40;;;;;;;11.44;46.57;101660.34;5053844;28;20029;-63
2022/02/05 03:09:46;;;;;;;5.85;1.05;;;;;;;11.45;46.31;101670.09;5053501;28;20028;-61
2022/02/05 03:12:13;;;;;;;1.92;1.08;;;;;;;11.44;46.73;101673.78;5053310;28;20056;-63
2022/02/05 03:14:39;;;;;;;6.55;1.20;;;;;;;11.44;46.20;101679.13;5035503;28;20108;-63
2022/02/05 03:17:15;;;;;;;7.25;1.00;;;;;;;11.41;46.12;101676.69;5035643;28;20127;-63
2022/02/05 03:19:46;;;;;;;6.38;1.15;;;;;;;11.46;46.62;101682.56;5053681;28;20029;-63
2022/02/05 03:22:13;;;;;;;2.60;1.00;;;;;;;11.44;46.48;101680.00;5035688;28;20479;-64
2022/02/05 03:24:38;;;;;;;2.97;1.63;;;;;;;11.43;46.37;101683.63;5053441;28;20036;-63
2022/02/05 03:27:04;;;;;;;5.30;1.30;;;;;;;11.42;46.82;101686.41;5053623;28;20467;-64
2022/02/05 03:29:29;;;;;;;7.20;1.42;;;;;;;11.42;46.74;101694.47;5053698;28;20106;-63
2022/02/05 03:31:55;;;;;;;3.70;1.40;;;;;;;11.40;46.61;101691.06;5056705;28;20032;-63
2022/02/05 03:34:20;;;;;;;5.60;1.60;;;;;;;11.39;46.94;101692.03;5057132;28;20036;-63
2022/02/05 03:36:45;;;;;;;10.63;1.35;;;;;;;11.40;46.01;101696.41;5057276;28;20040;-63
2022/02/05 03:39:11;;;;;;;9.75;1.40;;;;;;;11.38;47.12;101693.00;5039233;28;20048;-63
2022/02/05 03:41:36;;;;;;;2.15;1.40;;;;;;;11.41;46.79;101703.50;5057735;28;20021;-63
2022/02/05 03:44:02;;;;;;;3.55;1.48;;;;;;;11.39;46.40;101698.22;5057122;28;20028;-61
2022/02/05 03:46:29;;;;;;;4.50;1.60;;;;;;;11.36;46.42;101692.25;5057150;28;20028;-63
2022/02/05 03:48:55;;;;;;;4.68;1.02;;;;;;;11.34;46.14;101702.22;5056768;28;20044;-61
2022/02/05 03:51:20;;;;;;;5.93;1.13;;;;;;;11.36;46.95;101711.88;5056928;28;20024;-61
2022/02/05 03:53:45;;;;;;;6.57;1.50;;;;;;;11.37;46.62;101710.91;5057084;28;20032;-61
2022/02/05 03:56:11;;;;;;;3.70;1.30;;;;;;;11.38;46.60;101714.47;5056883;28;20025;-61
2022/02/05 03:58:36;;;;;;;3.20;0.95;;;;;;;11.38;46.58;101714.47;5056631;28;20402;-61
2022/02/05 04:01:02;;;;;;;6.65;1.88;;;;;;;11.17;46.56;101686.53;5056347;28;20104;-61
2022/02/05 04:03:27;;;;;;;2.40;1.23;;;;;;;11.39;46.48;101724.22;5056713;28;20024;-61
2022/02/05 04:05:52;;;;;;;7.53;1.50;;;;;;;11.39;46.33;101713.50;5056550;28;20466;-62
2022/02/05 04:08:18;;;;;;;3.83;1.65;;;;;;;11.38;46.68;101717.13;5056749;28;20473;-63
2022/02/05 04:10:48;;;;;;;4.15;1.85;;;;;;;11.37;46.23;101728.81;5056838;28;20029;-63
2022/02/05 04:16:44;;;;;;;3.67;1.10;;;;;;;11.34;46.42;101731.72;5041518;28;20067;-63
2022/02/05 04:18:45;;;;;;;5.32;1.20;;;;;;;11.34;46.52;101731.72;5045958;28;20498;-63
2022/02/05 04:21:10;;;;;;;5.43;1.00;;;;;;;11.31;46.62;101722.09;5057119;28;20078;-63
2022/02/05 04:23:36;;;;;;;2.88;1.15;;;;;;;11.34;45.83;101729.03;5038440;28;20033;-63
2022/02/05 04:26:01;;;;;;;5.47;1.55;;;;;;;11.33;46.61;101724.69;5056167;28;20387;-63
2022/02/05 04:28:26;;;;;;;6.18;1.55;;;;;;;11.33;46.43;101720.16;5056222;28;20059;-60
2022/02/05 04:30:52;;;;;;;2.47;1.30;;;;;;;11.29;45.86;101720.47;5038391;28;20051;-63
2022/02/05 04:33:17;;;;;;;4.70;1.20;;;;;;;11.32;46.42;101734.53;5056126;28;20021;-61
2022/02/05 04:35:45;;;;;;;6.03;1.35;;;;;;;11.32;46.33;101728.31;5056389;28;20060;-63
2022/02/05 04:38:10;;;;;;;3.70;1.58;;;;;;;11.30;46.01;101727.56;5038725;28;20025;-63
2022/02/05 04:40:54;;;;;;;7.75;1.23;;;;;;;11.30;45.97;101724.91;5056180;28;20051;-62
2022/02/05 04:56:39;;;;;;;1.52;1.13;;;;;;;11.30;46.42;101736.47;5022078;28;20065;-61
2022/02/05 05:04:42;;;;;;;1.38;0.60;;;;;;;11.32;46.40;101753.31;5055968;28;20498;-60
2022/02/05 05:20:09;;;;;;;3.13;1.20;;;;;;;11.26;46.81;101751.06;5040387;28;20086;-60
2022/02/05 05:22:35;;;;;;;2.10;1.23;;;;;;;11.22;46.89;101743.38;5053982;28;20471;-63
2022/02/05 05:25:00;;;;;;;2.47;1.10;;;;;;;11.28;46.35;101764.38;5055192;28;20048;-61
2022/02/05 05:27:26;;;;;;;3.78;1.05;;;;;;;11.30;45.96;101783.91;5055310;28;20025;-61
2022/02/05 05:29:52;;;;;;;3.38;1.73;;;;;;;11.31;46.50;101769.50;5055287;28;20498;-63
2022/02/05 05:32:18;;;;;;;3.40;1.17;;;;;;;11.29;46.62;101771.44;5054876;28;20021;-61
2022/02/05 05:34:43;;;;;;;8.00;1.15;;;;;;;11.28;45.99;101775.94;5036810;28;20021;-61
2022/02/05 05:37:08;;;;;;;5.32;1.48;;;;;;;11.27;46.38;101781.44;5055179;28;20100;-63
2022/02/05 05:39:36;;;;;;;2.35;1.20;;;;;;;11.27;46.28;101779.63;5054556;28;20024;-63
2022/02/05 05:42:01;;;;;;;5.97;1.10;;;;;;;11.19;45.70;101770.41;5055250;28;20096;-63
2022/02/05 05:47:17;;;;;;;9.00;1.38;;;;;;;11.22;46.55;101775.56;5055016;28;20021;-63
2022/02/05 05:49:59;;;;;;;3.75;0.60;;;;;;;11.28;46.63;101788.53;5054718;28;20395;-61
2022/02/05 05:52:25;;;;;;;3.38;1.23;;;;;;;11.28;46.35;101791.22;5054300;28;20486;-61
2022/02/05 05:54:50;;;;;;;4.00;1.30;;;;;;;11.28;47.00;101792.03;5054348;28;20029;-63
2022/02/05 05:57:16;;;;;;;5.18;1.10;;;;;;;11.29;46.22;101795.59;5054426;28;20040;-63
2022/02/05 05:59:42;;;;;;;1.75;0.75;;;;;;;11.28;46.37;101796.56;5054446;28;20025;-63
2022/02/05 06:02:08;;;;;;;6.60;1.38;;;;;;;11.26;46.74;101803.84;5037019;28;20078;-63
2022/02/05 06:04:34;;;;;;;5.80;1.13;;;;;;;11.26;46.02;101810.06;5054443;28;20066;-63
2022/02/05 06:06:59;;;;;;;7.95;1.88;;;;;;;11.28;46.95;101807.31;5054475;28;20024;-61
2022/02/05 06:09:24;;;;;;;6.28;1.10;;;;;;;11.28;46.82;101812.66;5054423;28;20045;-62
2022/02/05 06:11:50;;;;;;;7.13;1.10;;;;;;;11.29;46.30;101809.84;5036596;28;20024;-61
2022/02/05 06:14:20;;;;;;;2.97;1.20;;;;;;;11.28;46.68;101813.50;5054658;28;20021;-63
2022/02/05 06:16:49;;;;;;;6.28;1.40;;;;;;;11.31;46.91;101818.63;5036492;28;20025;-63
2022/02/05 06:19:15;;;;;;;5.72;1.30;;;;;;;11.30;46.18;101833.03;5054202;28;20036;-63
2022/02/05 06:21:40;;;;;;;7.18;1.30;;;;;;;11.30;46.34;101833.03;5054192;28;20025;-62
2022/02/05 06:24:06;;;;;;;7.95;1.83;;;;;;;11.29;46.73;101833.13;5054140;28;20024;-63
2022/02/05 06:26:31;;;;;;;5.05;1.08;;;;;;;11.27;46.51;101829.72;5036274;28;20144;-63
2022/02/05 06:28:56;;;;;;;10.98;1.30;;;;;;;11.29;46.35;101841.19;5054214;28;20028;-62
2022/02/05 06:31:22;;;;;;;8.10;1.08;;;;;;;11.26;46.53;101841.41;5054156;28;20108;-63
2022/02/05 06:33:48;;;;;;;12.52;1.23;;;;;;;11.26;45.74;101841.41;5054035;28;20036;-63
2022/02/05 06:36:13;;;;;;;2.70;1.10;;;;;;;11.23;46.46;101838.94;5036458;28;20035;-63
2022/02/05 06:38:39;;;;;;;5.70;1.23;;;;;;;11.22;46.33;101837.22;5053848;28;20446;-62
2022/02/05 06:41:04;;;;;;;8.27;1.45;;;;;;;11.17;45.87;101828.66;5053763;28;20530;-62
2022/02/05 06:43:30;;;;;;;2.75;1.58;;;;;;;11.18;46.50;101838.41;5036142;28;20352;-63
2022/02/05 06:45:55;;;;;;;3.80;1.85;;;;;;;11.15;46.65;101834.13;5053713;28;20070;-62
2022/02/05 06:48:20;;;;;;;7.05;1.27;;;;;;;11.14;46.65;101836.91;5036044;28;20025;-63
2022/02/05 06:50:46;;;;;;;6.50;1.23;;;;;;;11.11;46.59;101838.81;5036588;28;20029;-63
2022/02/05 06:53:11;;;;;;;6.47;1.38;;;;;;;11.08;46.59;101854.28;5035844;28;20090;-62
2022/02/05 06:55:37;;;;;;;4.35;1.55;;;;;;;11.08;46.53;101846.25;5036067;28;20029;-63
2022/02/05 06:58:02;;;;;;;3.17;1.17;;;;;;;11.08;46.69;101846.25;5053796;28;20021;-63
2022/02/05 07:00:27;;;;;;;7.80;2.03;;;;;;;11.09;46.45;101845.25;5053945;28;20025;-63
2022/02/05 07:02:53;;;;;;;7.32;2.10;;;;;;;11.07;46.69;101844.53;5019811;28;20459;-62
2022/02/05 07:05:18;;;;;;;3.92;0.95;;;;;;;11.08;46.83;101849.75;5054878;28;20059;-63
2022/02/05 07:07:43;;;;;;;4.95;1.77;;;;;;;11.05;46.41;101849.13;5057908;28;20142;-63
2022/02/05 07:10:09;;;;;;;7.93;1.13;;;;;;;11.03;46.38;101845.69;5040028;28;20079;-63
2022/02/05 07:12:45;;;;;;;6.18;1.25;;;;;;;11.05;46.28;101855.34;5058036;28;20025;-63
2022/02/05 07:15:18;;;;;;;8.38;1.60;;;;;;;11.04;47.31;101859.00;5041613;28;20029;-62
2022/02/05 07:17:52;;;;;;;4.97;1.83;;;;;;;11.03;46.67;101856.41;5057786;28;20522;-62
2022/02/05 07:23:42;;;;;;;4.43;1.02;;;;;;;11.09;45.84;101861.34;5057801;28;20025;-62
2022/02/05 07:31:12;;;;;;;5.47;1.60;;;;;;;11.06;46.75;101867.78;5057718;28;20044;-62
2022/02/05 07:33:38;;;;;;;11.15;1.75;;;;;;;11.07;46.43;101858.78;5039778;28;20021;-63
2022/02/05 07:36:03;;;;;;;7.82;1.23;;;;;;;11.14;46.54;101879.81;5057427;28;20032;-63
2022/02/05 07:38:29;;;;;;;5.47;1.08;;;;;;;11.19;46.13;101880.34;5057854;28;20079;-62
2022/02/05 07:40:54;;;;;;;5.15;1.30;;;;;;;11.24;46.07;101886.25;5057348;28;20028;-63
2022/02/05 07:43:26;;;;;;;3.33;1.17;;;;;;;11.27;46.22;101884.22;5057189;28;20383;-62
2022/02/05 07:45:51;;;;;;;4.43;1.58;;;;;;;11.32;46.96;101886.56;5057118;28;20052;-63
2022/02/05 07:48:17;;;;;;;11.05;1.73;;;;;;;11.24;46.06;101875.50;5056871;28;20028;-62
2022/02/05 07:50:42;;;;;;;6.32;1.15;;;;;;;11.40;46.54;101892.25;5038866;28;20021;-62
2022/02/05 07:53:07;;;;;;;8.52;1.77;;;;;;;11.44;46.10;101893.75;5056967;28;20060;-62
2022/02/05 07:55:33;;;;;;;5.28;1.50;;;;;;;11.49;46.91;101888.91;5056867;28;20063;-62
2022/02/05 07:57:58;;;;;;;20.63;1.98;;;;;;;11.52;46.02;101886.00;5056664;28;20074;-62
2022/02/05 08:00:23;;;;;;;6.35;1.58;;;;;;;11.60;46.43;101894.38;5056603;28;20036;-62
2022/02/05 08:02:51;;;;;;;3.63;1.75;;;;;;;11.58;45.80;101886.44;5056806;28;20028;-62
2022/02/05 08:05:16;;;;;;;6.28;1.80;;;;;;;11.70;45.89;101900.81;5056539;28;20017;-62
2022/02/05 08:07:42;;;;;;;7.35;1.90;;;;;;;11.75;46.19;101896.00;5056431;28;20078;-63
2022/02/05 08:10:09;;;;;;;7.68;1.60;;;;;;;11.77;46.14;101895.88;5056308;28;20021;-63
2022/02/05 08:12:38;;;;;;;15.05;1.88;;;;;;;11.86;45.75;101890.72;5056525;28;20070;-62
2022/02/05 08:15:04;;;;;;;11.35;1.67;;;;;;;11.96;46.18;101902.50;5056601;28;20067;-63
2022/02/05 08:17:32;;;;;;;9.98;1.42;;;;;;;12.04;46.19;101900.09;5056314;28;20414;-63
2022/02/05 08:19:58;;;;;;;7.05;1.90;;;;;;;12.06;45.38;101887.41;5039108;28;20040;-62
2022/02/05 08:22:23;;;;;;;5.47;2.00;;;;;;;12.19;46.16;101907.03;5056460;28;20029;-63
2022/02/05 08:24:49;;;;;;;12.65;2.10;;;;;;;12.23;45.95;101902.28;5056372;28;20048;-63
2022/02/05 08:27:15;;;;;;;8.05;1.63;;;;;;;12.34;46.01;101909.56;5038714;28;20118;-63
2022/02/05 08:29:53;;;;;;;5.15;1.80;;;;;;;12.39;45.74;101913.63;5056303;28;20444;-63
2022/02/05 08:32:22;;;;;;;12.55;2.00;;;;;;;12.43;46.13;101916.91;5056104;28;20070;-62
2022/02/05 08:34:47;;;;;;;12.52;2.63;;;;;;;12.42;46.29;101910.72;5056160;28;20032;-62
2022/02/05 08:37:12;;;;;;;16.10;4.07;;;;;;;12.48;46.04;101920.16;5055896;28;20032;-62
2022/02/05 08:39:38;;;;;;;14.55;4.25;;;;;;;12.54;45.69;101925.91;5055794;28;20032;-62
2022/02/05 08:42:03;;;;;;;7.65;2.75;;;;;;;12.58;45.97;101921.16;5055608;28;20057;-63
2022/02/05 08:44:31;;;;;;;9.18;2.42;;;;;;;12.75;45.31;101924.28;5037902;28;20076;-63
2022/02/05 08:46:56;;;;;;;12.77;2.95;;;;;;;12.88;45.16;101924.19;5055562;28;20041;-63
2022/02/05 08:49:21;;;;;;;6.60;2.60;;;;;;;13.04;45.48;101927.44;5037857;28;20075;-63
2022/02/05 08:51:47;;;;;;;8.55;2.42;;;;;;;13.15;45.58;101916.72;5055429;28;20033;-62
2022/02/05 08:54:12;;;;;;;11.68;3.42;;;;;;;13.29;45.47;101919.19;5055961;28;20021;-63
2022/02/05 08:56:37;;;;;;;19.70;3.60;;;;;;;13.46;45.31;101914.31;5055770;28;20056;-63
2022/02/05 08:59:04;;;;;;;9.45;2.28;;;;;;;13.61;45.92;101916.69;5037719;28;20029;-63
2022/02/05 09:01:42;;;;;;;11.80;1.83;;;;;;;13.75;45.70;101911.03;5055731;28;20458;-63
2022/02/05 09:07:05;;;;;;;6.63;2.00;;;;;;;14.14;44.26;101911.47;5000308;28;20033;-63
2022/02/05 09:09:42;;;;;;;6.18;2.15;;;;;;;14.26;44.42;101914.03;5055162;28;20116;-63
2022/02/05 09:12:29;;;;;;;14.43;1.80;;;;;;;14.47;44.54;101897.94;5055127;28;20429;-63
2022/02/05 09:14:54;;;;;;;14.23;1.88;;;;;;;14.72;44.31;101897.59;5054941;28;20360;-63
2022/02/05 09:17:19;;;;;;;7.43;2.67;;;;;;;14.96;43.79;101906.28;5055155;28;20111;-63
2022/02/05 09:19:46;;;;;;;5.35;1.90;;;;;;;15.09;43.42;101895.31;5055102;28;20028;-65
2022/02/05 09:22:11;;;;;;;8.02;1.92;;;;;;;15.23;43.36;101892.28;5055137;28;20120;-63
2022/02/05 09:24:37;;;;;;;5.05;1.40;;;;;;;15.46;44.24;101896.56;5055063;28;20051;-64
2022/02/05 09:27:06;;;;;;;11.82;2.03;;;;;;;15.65;43.49;101907.47;5054824;28;20360;-63
2022/02/05 09:29:37;;;;;;;9.57;2.20;;;;;;;15.83;43.28;101901.41;5037234;28;20425;-63
2022/02/05 09:32:03;;;;;;;9.18;2.03;;;;;;;16.05;43.20;101906.63;5054913;28;20044;-63
2022/02/05 09:34:28;;;;;;;11.65;2.05;;;;;;;16.29;42.55;101904.38;5055022;28;20048;-63
2022/02/05 09:36:54;;;;;;;6.53;2.50;;;;;;;16.51;43.39;101905.97;5054605;28;20029;-64
2022/02/05 09:39:19;;;;;;;6.85;1.85;;;;;;;16.69;42.41;101897.06;5054730;28;20039;-64
2022/02/05 09:41:45;;;;;;;11.13;2.03;;;;;;;16.97;41.53;101899.88;5054824;28;20017;-63
2022/02/05 09:44:11;;;;;;;15.38;2.20;;;;;;;17.30;41.83;101907.50;5054955;28;20382;-64
2022/02/05 09:46:37;;;;;;;8.75;2.35;;;;;;;17.62;41.37;101913.44;5054378;28;20056;-64
2022/02/05 09:49:04;;;;;;;6.68;1.92;;;;;;;18.04;41.51;101909.25;5054614;28;20037;-64
2022/02/05 09:51:35;;;;;;;3.55;1.50;;;;;;;18.16;40.91;101914.47;5054834;28;20023;-64
2022/02/05 09:54:04;;;;;;;5.18;1.67;;;;;;;18.61;40.78;101928.91;5054809;28;20565;-64
2022/02/05 09:56:32;;;;;;;9.80;2.20;;;;;;;18.86;40.73;101927.28;5054795;28;20025;-64
2022/02/05 09:58:58;;;;;;;8.23;2.75;;;;;;;19.05;40.45;101925.25;5054637;28;20475;-64
2022/02/05 10:01:28;;;;;;;5.07;1.42;;;;;;;19.56;39.54;101927.16;5036959;28;20021;-64
2022/02/05 10:03:54;;;;;;;5.72;1.60;;;;;;;19.78;39.44;101931.19;5037370;28;20048;-64
2022/02/05 10:06:25;;;;;;;6.03;2.47;;;;;;;20.23;38.82;101939.91;5054489;28;20027;-64
2022/02/05 10:08:57;;;;;;;8.02;1.90;;;;;;;20.57;38.36;101933.56;5037247;28;20021;-64
2022/02/05 10:11:23;;;;;;;8.90;2.10;;;;;;;20.72;38.41;101926.44;5054642;28;20052;-64
2022/02/05 10:13:48;;;;;;;8.57;2.63;;;;;;;20.86;38.53;101932.06;5054352;28;20438;-64
2022/02/05 10:16:14;;;;;;;7.20;2.08;;;;;;;21.15;38.10;101928.88;5054248;28;20533;-64
2022/02/05 10:18:43;;;;;;;9.48;2.30;;;;;;;21.47;38.08;101925.25;5053998;28;20037;-64
2022/02/05 10:21:41;;;;;;;5.38;1.58;;;;;;;21.78;36.84;101926.19;5054332;28;20107;-64
2022/02/05 10:24:08;;;;;;;5.70;2.67;;;;;;;21.98;37.78;101929.41;5020361;28;20041;-64
2022/02/05 10:26:43;;;;;;;8.88;1.70;;;;;;;22.11;36.89;101926.94;5053724;28;20017;-64
2022/02/05 10:29:17;;;;;;;5.93;1.80;;;;;;;22.37;37.02;101927.50;5035848;28;20055;-64
2022/02/05 10:31:59;;;;;;;11.88;2.08;;;;;;;22.51;36.40;101920.41;5053628;28;20051;-65
2022/02/05 10:34:25;;;;;;;8.63;2.15;;;;;;;22.71;35.86;101918.97;5053864;28;20017;-65
2022/02/05 10:37:25;;;;;;;4.70;2.30;;;;;;;22.89;36.14;101922.22;5035504;28;20044;-63
2022/02/05 10:45:06;;;;;;;9.52;2.70;;;;;;;23.32;35.88;101920.66;5053203;28;20163;-64
2022/02/05 10:47:52;;;;;;;9.40;1.67;;;;;;;23.52;35.23;101915.53;5053287;28;20116;-64
2022/02/05 10:50:23;;;;;;;7.20;2.50;;;;;;;23.29;34.97;101918.28;5053292;28;20025;-64
2022/02/05 10:52:51;;;;;;;4.10;1.70;;;;;;;23.60;35.07;101913.56;5035500;28;20028;-64
2022/02/05 11:08:06;;;;;;;6.47;1.35;;;;;;;22.95;35.60;101906.97;5053340;28;20029;-64
2022/02/05 11:21:14;;;;;;;5.95;1.42;;;;;;;23.76;33.61;101904.31;5053355;28;20060;-63
2022/02/05 11:23:43;;;;;;;4.75;1.63;;;;;;;23.90;33.72;101895.25;5053311;28;20410;-63
2022/02/05 11:26:08;;;;;;;3.97;1.52;;;;;;;24.03;33.28;101884.50;5052901;28;20025;-64
2022/02/05 11:28:47;;;;;;;4.57;1.55;;;;;;;24.13;32.88;101878.72;5052942;28;20035;-63
2022/02/05 11:31:15;;;;;;;3.38;1.48;;;;;;;24.36;32.54;101884.91;5053241;28;20356;-63
2022/02/05 11:33:41;;;;;;;3.53;1.50;;;;;;;24.56;32.68;101883.25;5053048;28;20024;-63
2022/02/05 11:38:43;;;;;;;5.50;1.60;;;;;;;24.89;32.63;101906.38;5053171;28;20025;-63
2022/02/05 11:41:32;;;;;;;7.00;1.27;;;;;;;23.95;33.25;101897.44;5035089;28;20036;-63
2022/02/05 11:44:18;;;;;;;4.05;1.13;;;;;;;23.25;33.11;101903.31;5052886;28;20037;-64
2022/02/05 11:47:09;;;;;;;6.25;1.70;;;;;;;22.89;33.11;101905.00;5052668;28;20083;-64
2022/02/05 11:49:57;;;;;;;9.20;2.15;;;;;;;22.34;34.39;101895.09;5052910;28;20049;-64
2022/02/05 11:52:43;;;;;;;3.50;1.15;;;;;;;22.24;33.03;101894.47;5055165;28;20029;-64
2022/02/05 11:55:08;;;;;;;3.67;1.35;;;;;;;22.10;34.13;101900.69;5056818;28;20087;-65
2022/02/05 11:57:46;;;;;;;3.72;1.58;;;;;;;22.00;32.97;101900.91;5056762;28;20415;-65
2022/02/05 12:00:22;;;;;;;5.38;1.30;;;;;;;21.67;33.40;101903.88;5056523;28;20040;-65
2022/02/05 12:05:28;;;;;;;5.88;1.65;;;;;;;21.07;34.60;101893.47;5057070;28;20021;-65
2022/02/05 12:08:05;;;;;;;12.40;1.77;;;;;;;21.06;34.48;101883.53;5039931;28;20478;-65
2022/02/05 12:10:41;;;;;;;4.65;1.30;;;;;;;20.68;33.75;101881.50;5057183;28;20554;-65
2022/02/05 12:13:23;;;;;;;1.88;1.20;;;;;;;20.52;34.40;101887.75;5057141;28;20029;-64
2022/02/05 12:16:11;;;;;;;2.70;1.08;;;;;;;20.52;33.98;101884.22;5056642;28;20029;-65
2022/02/05 12:19:16;;;;;;;4.53;1.63;;;;;;;20.00;34.59;101881.66;5056713;28;20033;-64
2022/02/05 12:21:53;;;;;;;6.90;1.52;;;;;;;20.31;34.04;101874.66;5057139;28;20033;-64
2022/02/05 12:24:35;;;;;;;6.43;1.80;;;;;;;20.55;33.38;101883.84;5056409;28;20023;-65
2022/02/05 12:27:02;;;;;;;4.25;1.00;;;;;;;20.23;34.52;101888.19;5056802;28;20028;-65
2022/02/05 12:29:29;;;;;;;6.82;1.10;;;;;;;20.15;34.51;101874.59;5056845;28;20474;-64
2022/02/05 12:31:55;;;;;;;4.93;1.40;;;;;;;19.91;34.68;101871.75;5055228;28;20025;-65
2022/02/05 12:34:20;;;;;;;11.63;1.48;;;;;;;19.55;35.32;101870.22;5056657;28;20499;-65
2022/02/05 12:36:49;;;;;;;2.53;1.17;;;;;;;19.89;34.81;101868.34;5056876;28;20033;-64
2022/02/05 12:39:25;;;;;;;2.88;1.27;;;;;;;20.37;33.60;101872.28;5056099;28;20021;-65
2022/02/05 12:42:14;;;;;;;6.57;1.50;;;;;;;19.98;34.08;101863.81;5056168;28;20028;-64
2022/02/05 12:44:45;;;;;;;6.63;1.77;;;;;;;19.89;34.16;101856.63;5056595;28;20052;-64
2022/02/05 12:47:26;;;;;;;3.22;1.60;;;;;;;20.27;34.11;101854.22;5056304;28;20045;-65
2022/02/05 12:49:58;;;;;;;5.88;1.42;;;;;;;20.58;33.40;101837.22;5056232;28;20087;-65
2022/02/05 12:52:25;;;;;;;9.35;1.23;;;;;;;20.81;33.99;101838.25;5056368;28;20059;-64
2022/02/05 12:54:55;;;;;;;1.45;1.20;;;;;;;21.04;33.94;101839.28;5038425;28;20025;-64
2022/02/05 12:57:20;;;;;;;4.45;0.82;;;;;;;21.13;33.79;101832.81;5056134;28;20036;-65
2022/02/05 12:59:46;;;;;;;6.80;1.13;;;;;;;21.15;33.05;101840.81;5056228;28;20092;-64
2022/02/05 13:02:14;;;;;;;2.35;1.52;;;;;;;21.12;33.49;101839.28;5038315;28;20063;-64
2022/02/05 13:04:50;;;;;;;3.08;1.00;;;;;;;21.05;33.53;101824.59;5055031;28;20025;-65
2022/02/05 13:07:24;;;;;;;8.15;1.25;;;;;;;21.02;33.54;101816.78;5055770;28;20028;-64
2022/02/05 13:09:59;;;;;;;1.20;0.80;;;;;;;21.11;32.94;101826.69;5055572;28;20090;-64
2022/02/05 13:12:28;;;;;;;2.72;0.95;;;;;;;21.19;33.10;101825.84;5055306;28;20027;-64
2022/02/05 13:15:01;;;;;;;2.97;0.95;;;;;;;21.14;33.12;101828.19;5055463;28;20032;-64
2022/02/05 13:17:42;;;;;;;5.22;0.88;;;;;;;21.21;33.21;101824.63;5055676;28;20033;-65
2022/02/05 13:36:12;;;;;;;4.90;1.67;;;;;;;21.21;33.84;101794.66;5039452;28;20029;-64
2022/02/05 13:38:57;;;;;;;7.25;1.42;;;;;;;21.23;33.77;101798.03;5054914;28;20033;-65
2022/02/05 13:41:47;;;;;;;6.57;1.77;;;;;;;21.13;33.80;101794.69;5054953;28;20039;-64
2022/02/05 13:44:19;;;;;;;1.95;0.90;;;;;;;21.16;33.82;101788.84;5055206;28;20020;-64
2022/02/05 13:47:00;;;;;;;2.83;1.00;;;;;;;21.23;33.11;101783.56;5054885;28;20119;-64
2022/02/05 13:49:26;;;;;;;4.25;1.13;;;;;;;21.27;32.55;101791.19;5055091;28;20037;-64
2022/02/05 13:51:51;;;;;;;7.22;1.02;;;;;;;21.22;33.77;101793.59;5054736;28;20078;-64
2022/02/05 13:54:17;;;;;;;5.78;1.40;;;;;;;21.23;33.59;101791.75;5054605;28;20061;-64
2022/02/05 13:56:42;;;;;;;7.35;1.80;;;;;;;21.24;33.65;101794.31;5036920;28;20052;-69
2022/02/05 13:59:20;;;;;;;3.75;0.93;;;;;;;21.22;32.62;101788.16;5036729;28;20036;-65
2022/02/05 14:01:45;;;;;;;6.68;0.80;;;;;;;21.14;32.90;101790.91;5055256;28;20025;-64
2022/02/05 14:04:19;;;;;;;2.92;0.90;;;;;;;21.12;33.27;101786.66;5054742;28;20427;-64
2022/02/05 14:06:57;;;;;;;2.85;1.00;;;;;;;21.03;33.00;101782.22;5054727;28;20032;-65
2022/02/05 14:09:25;;;;;;;5.75;0.90;;;;;;;20.91;33.37;101784.44;5054542;28;20051;-64
2022/02/05 14:11:50;;;;;;;3.17;1.20;;;;;;;20.64;33.14;101787.56;5054678;28;20024;-64
2022/02/05 14:14:25;;;;;;;1.85;0.90;;;;;;;20.53;33.44;101786.03;5054127;28;20104;-64
2022/02/05 14:16:50;;;;;;;5.97;1.33;;;;;;;20.32;33.14;101789.25;5054207;28;20025;-65
2022/02/05 14:19:24;;;;;;;3.10;1.23;;;;;;;20.19;33.12;101783.41;5053824;28;20434;-64
2022/02/05 14:21:52;;;;;;;3.15;0.73;;;;;;;20.09;33.49;101793.63;5054115;28;20114;-64
2022/02/05 14:24:26;;;;;;;4.22;1.25;;;;;;;19.86;33.55;101772.66;5054381;28;20044;-64
2022/02/05 14:27:00;;;;;;;6.53;1.08;;;;;;;19.79;33.14;101796.94;5036479;28;20045;-65
2022/02/05 14:29:27;;;;;;;7.25;1.95;;;;;;;19.69;33.41;101785.34;5054237;28;20033;-65
2022/02/05 14:31:57;;;;;;;2.38;0.70;;;;;;;19.50;33.49;101789.19;5054396;28;20085;-64
2022/02/05 14:34:58;;;;;;;7.03;1.63;;;;;;;19.24;33.26;101782.06;5054422;28;20109;-64
2022/02/05 14:42:42;;;;;;;1.58;1.02;;;;;;;18.57;34.15;101783.66;5054278;28;20032;-65
2022/02/05 14:45:07;;;;;;;5.03;1.05;;;;;;;18.36;34.25;101793.97;5053479;28;20040;-65